Time;durP1;ratioP1;P1;durP2;ratioP2;P2;SDS_P1;SDS_P2;PMS_P1;PMS_P2;Temp;Humidity;BMP_temperature;BMP_pressure;BME280_temperature;BME280_humidity;BME280_pressure;Samples;Min_cycle;Max_cycle;Signal;HPM_P1;HPM_P2
2023/09/11 00:00:17;;;;;;;7.97;7.18;;;;;;;25.75;50.45;101159.97;5037004;28;20056;-60
2023/09/11 00:02:44;;;;;;;8.32;7.35;;;;;;;25.75;50.51;101152.66;5038097;28;20048;-60
2023/09/11 00:05:12;;;;;;;7.70;7.00;;;;;;;25.76;50.58;101156.22;5036835;28;20041;-60
2023/09/11 00:07:39;;;;;;;9.05;7.13;;;;;;;25.76;50.59;101148.94;5036670;28;20048;-60
2023/09/11 00:10:07;;;;;;;7.65;6.95;;;;;;;25.76;50.51;101151.66;5037072;28;20053;-61
2023/09/11 00:12:34;;;;;;;8.68;7.80;;;;;;;25.76;50.55;101145.38;5037807;28;20049;-60
2023/09/11 00:15:02;;;;;;;7.70;6.90;;;;;;;25.76;50.59;101140.81;5036968;28;20044;-61
2023/09/11 00:17:29;;;;;;;8.40;7.50;;;;;;;25.76;50.41;101138.09;5036780;28;20052;-61
2023/09/11 00:19:57;;;;;;;8.52;7.40;;;;;;;25.78;50.25;101135.25;5036631;28;20053;-59
2023/09/11 00:22:24;;;;;;;7.97;7.20;;;;;;;25.77;50.51;101134.41;5037584;28;20049;-59
2023/09/11 00:24:52;;;;;;;8.05;7.20;;;;;;;25.77;50.34;101130.81;5036453;28;20048;-59
2023/09/11 00:27:19;;;;;;;7.35;6.55;;;;;;;25.78;50.38;101129.84;5036227;28;20060;-60
2023/09/11 00:29:46;;;;;;;9.70;6.57;;;;;;;25.77;50.63;101129.00;5033639;28;20436;-59
2023/09/11 00:32:13;;;;;;;8.00;7.25;;;;;;;25.77;50.49;101131.72;5035739;28;20053;-59
2023/09/11 00:34:41;;;;;;;7.88;7.10;;;;;;;25.78;50.39;101130.69;5036012;28;20076;-59
2023/09/11 00:37:08;;;;;;;9.40;7.07;;;;;;;25.78;50.37;101124.41;5036017;28;20041;-59
2023/09/11 00:39:36;;;;;;;9.10;8.20;;;;;;;25.79;50.24;101120.69;5036181;28;20050;-60
2023/09/11 00:42:03;;;;;;;9.48;7.18;;;;;;;25.79;50.28;101123.38;5035356;28;20054;-61
2023/09/11 00:44:31;;;;;;;7.72;7.03;;;;;;;25.78;50.36;101117.13;5036000;28;20507;-61
2023/09/11 00:46:58;;;;;;;7.88;7.07;;;;;;;25.79;50.27;101123.38;5034622;28;20042;-60
2023/09/11 00:49:26;;;;;;;7.43;6.72;;;;;;;25.79;50.32;101116.09;5036024;28;20499;-60
2023/09/11 00:51:55;;;;;;;8.15;6.75;;;;;;;25.79;50.34;101123.38;5037054;28;20053;-60
2023/09/11 00:54:23;;;;;;;7.32;6.68;;;;;;;25.79;50.36;101116.09;5034777;28;20522;-60
2023/09/11 00:56:50;;;;;;;8.07;7.28;;;;;;;25.79;50.35;101121.53;5034317;28;20053;-60
2023/09/11 00:59:18;;;;;;;8.20;6.55;;;;;;;25.79;50.26;101116.09;5035023;28;20041;-60
2023/09/11 01:01:46;;;;;;;7.70;6.95;;;;;;;25.79;50.14;101112.53;5037176;28;20045;-60
2023/09/11 01:04:13;;;;;;;7.88;7.07;;;;;;;25.80;50.20;101123.22;5034610;28;20060;-60
2023/09/11 01:06:41;;;;;;;7.90;7.10;;;;;;;25.80;50.28;101114.22;5034110;28;20045;-60
2023/09/11 01:09:08;;;;;;;9.40;7.60;;;;;;;25.79;50.13;101112.53;5035848;28;20060;-60
2023/09/11 01:11:36;;;;;;;7.55;6.70;;;;;;;25.80;50.21;101116.94;5036532;28;20385;-60
2023/09/11 01:14:04;;;;;;;10.65;7.15;;;;;;;25.79;50.28;101126.09;5034135;28;20056;-61
2023/09/11 01:16:55;;;;;;;8.15;7.18;;;;;;;25.80;50.14;101119.66;5033991;28;20050;-60
2023/09/11 01:19:44;;;;;;;7.85;7.05;;;;;;;25.80;50.16;101111.53;5035216;28;20053;-60
2023/09/11 01:22:27;;;;;;;7.95;7.15;;;;;;;25.80;50.09;101125.06;5034419;28;20068;-59
2023/09/11 01:25:13;;;;;;;;;;;;;;;25.78;50.30;101113.56;5029608;28;20053;-59
2023/09/11 01:28:02;;;;;;;7.97;7.07;;;;;;;25.79;50.00;101118.81;5034215;28;19921;-59
2023/09/11 01:30:30;;;;;;;7.85;7.05;;;;;;;25.78;50.15;101113.56;5033303;28;20064;-60
2023/09/11 01:32:58;;;;;;;7.72;6.90;;;;;;;25.78;50.10;101119.00;5035861;28;20045;-60
2023/09/11 01:35:26;;;;;;;8.73;7.57;;;;;;;25.79;49.99;101115.25;5034977;28;20060;-60
2023/09/11 01:37:55;;;;;;;7.95;7.15;;;;;;;25.77;50.16;101120.84;5034932;28;20049;-60
2023/09/11 01:40:26;;;;;;;7.68;6.95;;;;;;;25.79;50.25;101123.38;5035896;28;20041;-60
2023/09/11 01:42:56;;;;;;;7.60;6.90;;;;;;;25.80;50.02;101117.78;5033989;28;20076;-61
2023/09/11 01:45:25;;;;;;;8.43;6.80;;;;;;;25.79;50.06;101109.81;5032391;28;20058;-61
2023/09/11 01:47:54;;;;;;;7.30;6.63;;;;;;;25.79;50.05;101118.81;5034752;28;20403;-60
2023/09/11 01:50:23;;;;;;;7.47;6.68;;;;;;;25.78;49.97;101110.84;5033569;28;20403;-59
2023/09/11 01:52:51;;;;;;;7.47;6.78;;;;;;;25.80;49.96;101108.81;5035983;28;20041;-59
2023/09/11 01:55:20;;;;;;;7.93;7.13;;;;;;;25.78;49.91;101106.28;5033391;28;20415;-59
2023/09/11 01:57:49;;;;;;;7.97;6.97;;;;;;;25.79;50.05;101104.41;5034791;28;20046;-60
2023/09/11 02:00:16;;;;;;;7.68;6.75;;;;;;;25.79;50.10;101098.97;5032990;28;20061;-60
2023/09/11 02:02:43;;;;;;;7.72;7.00;;;;;;;25.78;49.99;101106.28;5036245;28;20053;-60
2023/09/11 02:05:11;;;;;;;7.35;6.65;;;;;;;25.78;49.79;101100.00;5034902;28;20056;-60
2023/09/11 02:07:39;;;;;;;7.93;7.20;;;;;;;25.78;49.70;101097.28;5034493;28;20041;-61
2023/09/11 02:10:07;;;;;;;7.93;7.13;;;;;;;25.79;49.79;101102.53;5033560;28;20053;-61
2023/09/11 02:12:35;;;;;;;8.70;7.82;;;;;;;25.79;49.86;101096.28;5035564;28;20056;-61
2023/09/11 02:15:03;;;;;;;6.95;6.35;;;;;;;25.79;49.60;101104.41;5033471;28;20049;-61
2023/09/11 02:17:30;;;;;;;8.07;7.28;;;;;;;25.78;49.81;101102.72;5034072;28;20049;-60
2023/09/11 02:19:57;;;;;;;7.35;6.65;;;;;;;25.77;50.07;101093.75;5016443;28;20053;-60
2023/09/11 02:22:25;;;;;;;7.50;6.53;;;;;;;25.78;49.84;101100.00;5035326;28;20045;-61
2023/09/11 02:24:52;;;;;;;7.47;6.78;;;;;;;25.78;49.69;101092.72;5032955;28;20045;-61
2023/09/11 02:27:20;;;;;;;7.30;6.60;;;;;;;25.78;49.68;101090.00;5032865;28;20056;-60
2023/09/11 02:29:48;;;;;;;9.07;7.25;;;;;;;25.78;49.83;101091.88;5034316;28;20407;-60
2023/09/11 02:32:15;;;;;;;8.88;7.60;;;;;;;25.78;49.62;101084.56;5035410;28;20075;-59
2023/09/11 02:34:43;;;;;;;7.93;7.18;;;;;;;25.79;49.87;101088.97;5034686;28;20060;-60
2023/09/11 02:37:10;;;;;;;7.78;6.78;;;;;;;25.79;49.82;101088.13;5034358;28;20365;-59
2023/09/11 02:39:38;;;;;;;7.97;7.18;;;;;;;25.78;49.77;101090.00;5032493;28;20412;-59
2023/09/11 02:42:06;;;;;;;7.68;6.90;;;;;;;25.78;49.76;101081.03;5035265;28;20506;-59
2023/09/11 02:44:33;;;;;;;7.97;7.18;;;;;;;25.78;49.70;101081.88;5034548;28;20045;-59
2023/09/11 02:47:00;;;;;;;7.88;7.10;;;;;;;25.78;49.81;101084.56;5032744;28;20049;-59
2023/09/11 02:49:28;;;;;;;7.55;6.85;;;;;;;25.78;49.67;101090.00;5034136;28;20476;-59
2023/09/11 02:51:55;;;;;;;7.43;6.60;;;;;;;25.78;49.97;101089.16;5035070;28;20060;-59
2023/09/11 02:54:23;;;;;;;7.75;7.05;;;;;;;25.77;49.75;101084.72;5034209;28;20049;-60
2023/09/11 02:56:50;;;;;;;8.07;7.28;;;;;;;25.77;49.84;101091.03;5032778;28;20041;-60
2023/09/11 02:59:18;;;;;;;8.38;7.57;;;;;;;25.78;49.68;101091.88;5033322;28;20056;-60
2023/09/11 03:01:45;;;;;;;7.20;6.60;;;;;;;25.78;49.61;101081.03;5033340;28;20523;-59
2023/09/11 03:04:12;;;;;;;7.93;7.20;;;;;;;25.78;49.73;101086.44;5034076;28;20041;-60
2023/09/11 03:06:39;;;;;;;7.55;6.72;;;;;;;25.77;49.44;101087.44;5033788;28;20041;-60
2023/09/11 03:09:07;;;;;;;7.80;7.10;;;;;;;25.76;49.57;101089.28;5032566;28;20065;-60
2023/09/11 03:11:34;;;;;;;7.68;6.97;;;;;;;25.77;49.45;101087.44;5033378;28;20053;-60
2023/09/11 03:14:02;;;;;;;8.27;7.32;;;;;;;25.76;49.53;101086.56;5032507;28;20049;-60
2023/09/11 03:16:29;;;;;;;7.45;6.75;;;;;;;25.77;49.55;101087.44;5033910;28;20503;-60
2023/09/11 03:18:58;;;;;;;7.68;6.85;;;;;;;25.76;49.40;101083.84;5032834;28;20057;-60
2023/09/11 03:21:25;;;;;;;8.35;7.55;;;;;;;25.76;49.54;101081.13;5034755;28;20057;-60
2023/09/11 03:23:52;;;;;;;7.32;6.57;;;;;;;25.77;49.45;101080.19;5036245;28;20526;-60
2023/09/11 03:26:20;;;;;;;9.75;7.97;;;;;;;25.77;49.46;101090.16;5036226;28;20064;-59
2023/09/11 03:28:52;;;;;;;8.18;7.38;;;;;;;25.77;49.53;101092.88;5036304;28;20419;-60
2023/09/11 03:31:24;;;;;;;7.50;6.80;;;;;;;25.77;49.56;101090.16;5044076;28;20050;-59
2023/09/11 03:33:51;;;;;;;8.85;7.63;;;;;;;25.76;49.32;101085.72;5036107;28;20053;-59
2023/09/11 03:36:20;;;;;;;8.02;7.18;;;;;;;25.76;49.42;101091.16;5035623;28;20065;-60
2023/09/11 03:38:47;;;;;;;8.50;7.63;;;;;;;25.76;49.48;101089.28;5035704;28;20060;-60
2023/09/11 03:41:15;;;;;;;7.50;6.80;;;;;;;25.76;49.43;101091.16;5036432;28;20057;-60
2023/09/11 03:43:43;;;;;;;7.90;7.20;;;;;;;25.76;49.34;101093.84;5036208;28;20415;-59
2023/09/11 03:46:13;;;;;;;8.43;7.63;;;;;;;25.75;49.43;101082.16;5035728;28;20049;-59
2023/09/11 03:48:44;;;;;;;7.93;7.22;;;;;;;25.76;49.33;101091.16;5036409;28;20060;-60
2023/09/11 03:51:13;;;;;;;8.07;7.25;;;;;;;25.75;49.47;101081.31;5027917;28;20416;-59
2023/09/11 03:53:44;;;;;;;7.32;6.63;;;;;;;25.75;49.56;101084.03;5036022;28;20046;-59
2023/09/11 03:56:16;;;;;;;8.65;7.25;;;;;;;25.73;49.39;101080.66;5046468;28;20487;-60
2023/09/11 03:58:45;;;;;;;8.57;7.22;;;;;;;25.74;49.36;101083.19;5036154;28;20060;-60
2023/09/11 04:01:16;;;;;;;8.32;7.53;;;;;;;25.75;49.64;101078.59;5035297;28;20053;-61
2023/09/11 04:03:43;;;;;;;7.72;7.00;;;;;;;25.74;49.46;101079.63;5035531;28;20057;-61
2023/09/11 04:06:11;;;;;;;7.72;7.03;;;;;;;25.74;49.61;101077.75;5036946;28;20052;-60
2023/09/11 04:08:38;;;;;;;9.73;7.47;;;;;;;25.74;49.84;101075.06;5038121;28;20045;-60
2023/09/11 04:11:06;;;;;;;7.55;6.85;;;;;;;25.74;49.43;101076.91;5036796;28;20052;-61
2023/09/11 04:13:34;;;;;;;7.65;6.95;;;;;;;25.74;49.65;101079.63;5035228;28;20495;-60
2023/09/11 04:16:01;;;;;;;10.18;7.70;;;;;;;25.73;49.59;101081.50;5028232;28;20048;-61
2023/09/11 04:18:28;;;;;;;8.02;7.15;;;;;;;25.75;49.58;101084.03;5052823;28;20053;-61
2023/09/11 04:21:03;;;;;;;8.02;7.32;;;;;;;25.73;49.50;101084.22;5036910;28;20045;-60
2023/09/11 04:23:32;;;;;;;7.68;6.97;;;;;;;25.74;49.57;101079.63;5035312;28;20499;-63
2023/09/11 04:26:00;;;;;;;6.97;6.28;;;;;;;25.72;49.48;101082.50;5035457;28;20053;-63
2023/09/11 04:28:28;;;;;;;6.97;6.38;;;;;;;25.70;49.33;101080.97;5037501;28;20033;-59
2023/09/11 04:30:56;;;;;;;7.75;7.13;;;;;;;25.67;49.23;101073.19;5051787;28;20506;-59
2023/09/11 04:33:23;;;;;;;8.45;7.65;;;;;;;25.65;49.14;101078.78;5035347;28;20064;-59
2023/09/11 04:35:51;;;;;;;7.80;7.07;;;;;;;25.64;49.34;101082.47;5035630;28;20061;-59
2023/09/11 04:38:19;;;;;;;8.23;7.50;;;;;;;25.62;49.42;101085.38;5036824;28;20042;-59
2023/09/11 04:40:46;;;;;;;8.68;7.78;;;;;;;25.61;49.37;101083.69;5036675;28;20045;-59
2023/09/11 04:43:14;;;;;;;9.30;7.50;;;;;;;25.57;49.38;101087.75;5035234;28;20061;-59
2023/09/11 04:45:42;;;;;;;8.18;7.35;;;;;;;25.55;49.48;101087.03;5035129;28;20054;-59
2023/09/11 04:48:09;;;;;;;7.95;7.15;;;;;;;25.55;49.65;101083.50;5035299;28;20057;-59
2023/09/11 04:50:37;;;;;;;8.38;7.47;;;;;;;25.52;49.67;101079.28;5035047;28;20392;-59
2023/09/11 04:53:04;;;;;;;7.50;6.80;;;;;;;25.52;49.68;101081.09;5034896;28;20068;-59
2023/09/11 04:55:32;;;;;;;8.57;7.78;;;;;;;25.49;49.72;101076.88;5034860;28;20056;-59
2023/09/11 04:58:00;;;;;;;8.48;7.68;;;;;;;25.50;49.93;101080.44;5034765;28;20045;-59
2023/09/11 05:00:27;;;;;;;9.50;8.00;;;;;;;25.49;50.19;101081.47;5034195;28;20053;-59
2023/09/11 05:02:54;;;;;;;8.63;7.82;;;;;;;25.48;50.19;101087.88;5034032;28;20053;-59
2023/09/11 05:05:23;;;;;;;8.30;7.50;;;;;;;25.47;50.22;101087.03;5034983;28;20053;-59
2023/09/11 05:07:50;;;;;;;7.65;6.68;;;;;;;25.47;50.39;101083.47;5034673;28;20061;-61
2023/09/11 05:10:19;;;;;;;8.90;8.07;;;;;;;25.46;50.40;101088.06;5034330;28;20049;-62
2023/09/11 05:12:46;;;;;;;8.68;7.68;;;;;;;25.44;50.50;101081.94;5035309;28;20048;-63
2023/09/11 05:15:14;;;;;;;8.07;7.38;;;;;;;25.45;50.63;101086.38;5051064;28;20049;-63
2023/09/11 05:17:41;;;;;;;8.48;7.68;;;;;;;25.43;50.85;101082.97;5050614;28;20053;-63
2023/09/11 05:20:10;;;;;;;8.57;7.72;;;;;;;25.42;50.41;101085.84;5034521;28;20068;-62
2023/09/11 05:22:38;;;;;;;8.50;7.70;;;;;;;25.40;50.66;101091.41;5035312;28;20052;-63
2023/09/11 05:25:06;;;;;;;9.40;8.50;;;;;;;25.39;50.65;101095.16;5036508;28;20156;-63
2023/09/11 05:27:33;;;;;;;8.35;7.63;;;;;;;25.39;50.76;101092.44;5027022;28;20052;-63
2023/09/11 05:30:00;;;;;;;7.97;7.28;;;;;;;25.38;51.02;101091.59;5030813;28;20063;-59
2023/09/11 05:32:28;;;;;;;8.85;8.05;;;;;;;25.39;50.72;101098.69;5033553;28;20049;-59
2023/09/11 05:34:55;;;;;;;8.80;7.75;;;;;;;25.39;50.73;101089.72;5035850;28;20499;-59
2023/09/11 05:37:23;;;;;;;9.43;8.52;;;;;;;25.38;50.39;101088.88;5043604;28;20044;-58
2023/09/11 05:39:50;;;;;;;8.38;7.57;;;;;;;25.37;50.53;101089.91;5035365;28;20515;-59
2023/09/11 05:42:17;;;;;;;8.82;7.63;;;;;;;25.36;50.52;101090.03;5034861;28;20041;-59
2023/09/11 05:44:45;;;;;;;8.90;8.00;;;;;;;25.34;50.57;101084.81;5034118;28;20048;-59
2023/09/11 05:47:12;;;;;;;9.60;8.70;;;;;;;25.31;50.31;101079.72;5026440;28;20057;-59
2023/09/11 05:49:39;;;;;;;8.27;7.55;;;;;;;25.30;50.40;101085.31;5035095;28;20041;-62
2023/09/11 05:52:07;;;;;;;8.90;8.10;;;;;;;25.31;50.18;101095.13;5035159;28;20057;-63
2023/09/11 05:54:34;;;;;;;9.63;8.73;;;;;;;25.30;50.32;101094.28;5035625;28;20064;-63
2023/09/11 05:57:02;;;;;;;8.55;7.75;;;;;;;25.32;50.49;101094.97;5034825;28;20049;-63
2023/09/11 05:59:30;;;;;;;9.45;8.55;;;;;;;25.32;50.35;101094.97;5034724;28;20487;-59
2023/09/11 06:01:57;;;;;;;9.60;8.73;;;;;;;25.33;50.18;101102.09;5034917;28;20052;-59
2023/09/11 06:04:24;;;;;;;8.80;8.00;;;;;;;25.34;50.51;101103.78;5035298;28;20041;-59
2023/09/11 06:06:52;;;;;;;8.88;8.07;;;;;;;25.35;50.56;101097.34;5034482;28;20049;-59
2023/09/11 06:09:19;;;;;;;9.65;8.85;;;;;;;25.36;50.50;101096.34;5034854;28;20052;-59
2023/09/11 06:11:46;;;;;;;9.18;8.35;;;;;;;25.36;50.54;101101.75;5034524;28;20052;-58
2023/09/11 06:14:14;;;;;;;9.15;8.25;;;;;;;25.36;50.88;101100.88;5035123;28;20049;-59
2023/09/11 06:16:41;;;;;;;9.10;8.30;;;;;;;25.36;50.70;101101.75;5034426;28;20045;-59
2023/09/11 06:19:08;;;;;;;10.02;9.07;;;;;;;25.36;50.55;101098.19;5034728;28;20068;-59
2023/09/11 06:21:36;;;;;;;8.50;7.68;;;;;;;25.35;50.71;101102.75;5034542;28;20522;-59
2023/09/11 06:24:07;;;;;;;9.90;8.95;;;;;;;25.36;50.76;101107.19;5035458;28;20400;-59
2023/09/11 06:26:34;;;;;;;9.15;8.15;;;;;;;25.38;50.99;101109.72;5026179;28;20053;-58
2023/09/11 06:29:02;;;;;;;9.52;8.55;;;;;;;25.39;50.79;101106.00;5034647;28;20049;-59
2023/09/11 06:31:31;;;;;;;9.90;8.90;;;;;;;25.40;50.86;101102.25;5034505;28;20049;-59
2023/09/11 06:33:58;;;;;;;11.13;10.07;;;;;;;25.40;50.73;101110.38;5035677;28;20042;-62
2023/09/11 06:36:26;;;;;;;10.48;9.48;;;;;;;25.40;50.88;101107.69;5034230;28;20053;-62
2023/09/11 06:38:53;;;;;;;11.23;10.13;;;;;;;25.42;50.62;101113.78;5034421;28;20045;-58
2023/09/11 06:41:20;;;;;;;10.35;9.13;;;;;;;25.45;50.96;101115.34;5034309;28;20057;-59
2023/09/11 06:43:48;;;;;;;11.88;10.18;;;;;;;25.47;50.70;101113.28;5036210;28;20090;-59
2023/09/11 06:46:16;;;;;;;10.00;8.88;;;;;;;25.47;50.65;101108.72;5029560;28;20049;-59
2023/09/11 06:48:43;;;;;;;10.77;9.77;;;;;;;25.49;50.70;101112.13;5034350;28;20041;-62
2023/09/11 06:51:11;;;;;;;11.65;10.55;;;;;;;25.50;50.45;101118.38;5034212;28;20053;-63
2023/09/11 06:53:38;;;;;;;9.88;8.98;;;;;;;25.51;50.55;101110.09;5035035;28;20046;-63
2023/09/11 06:56:08;;;;;;;10.63;9.50;;;;;;;25.55;50.42;101121.44;5034018;28;20064;-60
2023/09/11 06:58:38;;;;;;;9.82;8.75;;;;;;;25.57;50.54;101125.69;5042417;28;20041;-63
2023/09/11 07:01:07;;;;;;;11.23;8.85;;;;;;;25.61;50.80;101116.22;5032686;28;20049;-64
2023/09/11 07:03:35;;;;;;;9.35;8.55;;;;;;;25.67;50.71;101119.28;5039167;28;20056;-60
2023/09/11 07:06:02;;;;;;;9.25;7.95;;;;;;;25.71;50.52;101126.91;5037994;28;20392;-59
2023/09/11 07:08:30;;;;;;;10.65;8.00;;;;;;;25.74;50.56;101123.88;5038182;28;20041;-60
2023/09/11 07:10:58;;;;;;;8.85;8.02;;;;;;;25.77;50.67;101119.97;5037853;28;20522;-60
2023/09/11 07:13:25;;;;;;;9.55;8.65;;;;;;;25.79;50.68;101120.69;5038866;28;20045;-60
2023/09/11 07:16:00;;;;;;;9.57;8.68;;;;;;;25.80;50.32;101120.50;5037890;28;20537;-61
2023/09/11 07:18:27;;;;;;;9.48;8.35;;;;;;;25.82;50.18;101123.06;5043802;28;20036;-60
2023/09/11 07:20:55;;;;;;;9.45;8.43;;;;;;;25.83;50.32;101124.75;5037996;28;20518;-60
2023/09/11 07:23:24;;;;;;;9.18;8.38;;;;;;;25.80;50.29;101125.06;5038451;28;20053;-61
2023/09/11 07:25:52;;;;;;;8.68;7.75;;;;;;;25.80;50.28;101120.50;5037408;28;20041;-62
2023/09/11 07:28:19;;;;;;;8.63;7.78;;;;;;;25.81;50.25;101116.78;5037649;28;20056;-61
2023/09/11 07:30:46;;;;;;;9.10;7.40;;;;;;;25.82;50.15;101110.34;5037503;28;20045;-61
2023/09/11 07:33:14;;;;;;;9.82;8.63;;;;;;;25.84;50.03;101121.84;5038929;28;20056;-59
2023/09/11 07:35:41;;;;;;;8.90;8.07;;;;;;;25.86;50.01;101114.41;5037331;28;20054;-61
2023/09/11 07:38:09;;;;;;;9.40;8.10;;;;;;;25.87;50.21;101115.25;5037573;28;20052;-60
2023/09/11 07:40:37;;;;;;;7.88;7.03;;;;;;;25.89;50.24;101114.09;5037512;28;20053;-61
2023/09/11 07:43:04;;;;;;;8.32;6.80;;;;;;;25.93;50.12;101117.31;5038428;28;20052;-60
2023/09/11 07:45:32;;;;;;;8.55;7.75;;;;;;;25.90;50.29;101117.66;5041936;28;20041;-62
2023/09/11 07:47:59;;;;;;;11.00;8.27;;;;;;;25.86;49.63;101116.28;5039139;28;20045;-63
2023/09/11 07:50:28;;;;;;;7.63;6.85;;;;;;;25.81;49.37;101119.50;5044565;28;20049;-62
2023/09/11 07:52:55;;;;;;;9.10;7.68;;;;;;;25.72;49.22;101125.03;5038057;28;20048;-60
2023/09/11 07:55:23;;;;;;;7.25;6.53;;;;;;;25.66;48.90;101118.44;5037084;28;20052;-60
2023/09/11 07:57:52;;;;;;;7.05;6.35;;;;;;;25.61;49.10;101120.78;5036724;28;20045;-67
2023/09/11 08:00:20;;;;;;;8.15;7.28;;;;;;;25.56;49.23;101113.16;5033866;28;20041;-68
2023/09/11 08:02:48;;;;;;;9.90;7.25;;;;;;;25.54;49.27;101115.19;5045221;28;20045;-59
2023/09/11 08:05:16;;;;;;;8.43;6.95;;;;;;;25.54;49.01;101123.31;5036576;28;20053;-59
2023/09/11 08:07:43;;;;;;;7.40;6.70;;;;;;;25.57;49.01;101125.69;5036138;28;20065;-62
2023/09/11 08:10:11;;;;;;;7.80;6.70;;;;;;;25.58;48.89;101113.84;5036608;28;20041;-60
2023/09/11 08:12:38;;;;;;;7.95;6.88;;;;;;;25.60;48.72;101119.06;5037452;28;20049;-64
2023/09/11 08:15:06;;;;;;;6.68;5.97;;;;;;;25.61;48.91;101121.63;5035243;28;20045;-61
2023/09/11 08:17:33;;;;;;;7.53;6.22;;;;;;;25.62;49.00;101117.06;5036050;28;20052;-62
2023/09/11 08:20:01;;;;;;;9.05;7.03;;;;;;;25.60;49.11;101119.97;5036131;28;20042;-62
2023/09/11 08:22:28;;;;;;;7.80;7.00;;;;;;;25.56;48.88;101118.59;5037463;28;20061;-62
2023/09/11 08:24:56;;;;;;;7.53;6.47;;;;;;;25.55;48.72;101107.91;5036428;28;20042;-63
2023/09/11 08:27:23;;;;;;;8.52;7.22;;;;;;;25.55;48.51;101110.59;5036166;28;20049;-66
2023/09/11 08:29:52;;;;;;;9.15;6.65;;;;;;;25.56;48.90;101113.16;5036442;28;20502;-67
2023/09/11 08:32:20;;;;;;;7.18;6.47;;;;;;;25.57;48.60;101109.44;5043081;28;20068;-60
2023/09/11 08:34:52;;;;;;;7.53;6.82;;;;;;;25.59;48.50;101115.53;5036131;28;20052;-62
2023/09/11 08:37:19;;;;;;;7.60;6.77;;;;;;;25.61;48.28;101108.09;5035988;28;20042;-60
2023/09/11 08:39:47;;;;;;;8.20;6.97;;;;;;;25.62;48.26;101100.78;5045433;28;20053;-63
2023/09/11 08:42:14;;;;;;;7.55;6.75;;;;;;;25.62;48.49;101098.09;5042593;28;20048;-64
2023/09/11 08:44:42;;;;;;;7.65;5.95;;;;;;;25.64;48.35;101099.63;5036309;28;20045;-58
2023/09/11 08:47:12;;;;;;;6.18;5.55;;;;;;;25.66;48.28;101113.00;5035936;28;20056;-65
2023/09/11 08:49:54;;;;;;;8.63;6.15;;;;;;;25.68;48.47;101108.25;5037012;28;20053;-65
2023/09/11 08:52:22;;;;;;;8.32;6.95;;;;;;;25.70;48.21;101105.38;5036086;28;20049;-65
2023/09/11 08:54:53;;;;;;;7.32;6.63;;;;;;;25.71;48.32;101096.22;5035757;28;20056;-64
2023/09/11 08:57:26;;;;;;;6.70;6.07;;;;;;;25.73;48.26;101091.50;5035588;28;20053;-59
2023/09/11 08:59:58;;;;;;;7.13;6.38;;;;;;;25.74;48.30;101088.59;5044126;28;20048;-66
2023/09/11 09:02:27;;;;;;;7.32;6.63;;;;;;;25.76;48.24;101099.28;5035734;28;20087;-66
2023/09/11 09:04:55;;;;;;;6.57;5.93;;;;;;;25.77;48.01;101107.28;5035637;28;20045;-63
2023/09/11 09:07:24;;;;;;;7.55;6.53;;;;;;;25.78;47.77;101098.13;5036641;28;20480;-64
2023/09/11 09:09:52;;;;;;;7.43;6.72;;;;;;;25.79;48.01;101097.13;5035719;28;20053;-61
2023/09/11 09:12:19;;;;;;;8.40;6.88;;;;;;;25.81;47.81;101091.53;5035325;28;20056;-60
2023/09/11 09:14:48;;;;;;;7.30;6.65;;;;;;;25.82;47.58;101087.81;5028190;28;20046;-60
2023/09/11 09:17:16;;;;;;;7.47;6.47;;;;;;;25.84;47.70;101083.88;5036210;28;20050;-59
2023/09/11 09:19:45;;;;;;;6.90;6.30;;;;;;;25.86;47.76;101091.88;5034122;28;20053;-63
2023/09/11 09:22:13;;;;;;;7.72;6.93;;;;;;;25.86;47.71;101090.00;5035272;28;20075;-66
2023/09/11 09:24:53;;;;;;;7.53;6.68;;;;;;;25.88;47.70;101095.25;5035227;28;20056;-65
2023/09/11 09:27:25;;;;;;;8.73;6.40;;;;;;;25.91;47.61;101083.22;5042530;28;20053;-60
2023/09/11 09:29:52;;;;;;;7.30;6.50;;;;;;;25.93;47.69;101084.75;5035349;28;20050;-63
2023/09/11 09:32:20;;;;;;;7.05;6.35;;;;;;;25.97;47.82;101088.84;5034921;28;20053;-60
2023/09/11 09:34:57;;;;;;;6.60;5.97;;;;;;;25.96;47.79;101089.81;5033685;28;20415;-60
2023/09/11 09:37:25;;;;;;;7.20;6.47;;;;;;;25.96;47.71;101081.69;5027353;28;20052;-60
2023/09/11 09:39:52;;;;;;;7.47;6.43;;;;;;;25.97;47.72;101077.97;5035092;28;20427;-61
2023/09/11 09:42:20;;;;;;;7.57;6.32;;;;;;;25.98;47.39;101079.66;5034793;28;20045;-60
2023/09/11 09:44:55;;;;;;;6.35;5.75;;;;;;;26.00;47.53;101076.78;5035802;28;20399;-61
2023/09/11 09:47:22;;;;;;;6.47;5.88;;;;;;;26.02;47.31;101075.59;5034663;28;20049;-62
2023/09/11 09:49:50;;;;;;;7.15;6.45;;;;;;;26.03;47.08;101071.88;5005409;28;20046;-64
2023/09/11 09:52:19;;;;;;;6.88;5.85;;;;;;;26.05;47.18;101067.13;5000175;28;20535;-60
2023/09/11 09:54:52;;;;;;;6.78;6.13;;;;;;;26.07;47.27;101069.66;4995444;28;20046;-61
2023/09/11 09:57:21;;;;;;;6.88;6.03;;;;;;;26.09;47.35;101064.91;4995724;28;20046;-62
2023/09/11 09:59:52;;;;;;;6.65;5.95;;;;;;;26.10;47.30;101056.59;4995189;28;20050;-68
2023/09/11 10:02:32;;;;;;;6.10;5.60;;;;;;;26.09;47.40;101054.03;4995516;28;20046;-68
2023/09/11 10:05:05;;;;;;;7.40;6.53;;;;;;;26.10;47.46;101051.19;4988321;28;20050;-60
2023/09/11 10:07:38;;;;;;;;;;;;;;;26.08;47.46;101042.34;4995662;28;20118;-61
2023/09/11 10:10:23;;;;;;;6.95;6.25;;;;;;;26.12;47.27;101040.13;4995339;28;19925;-59
2023/09/11 10:13:04;;;;;;;7.90;6.90;;;;;;;26.12;47.17;101040.97;4995111;28;20408;-62
2023/09/11 10:15:33;;;;;;;7.43;6.05;;;;;;;26.15;47.46;101034.38;4994886;28;20050;-63
2023/09/11 10:18:02;;;;;;;7.07;6.38;;;;;;;26.16;47.19;101030.63;4994899;28;20053;-61
2023/09/11 10:20:31;;;;;;;6.20;5.60;;;;;;;26.18;47.13;101035.91;5002911;28;20053;-62
2023/09/11 10:23:01;;;;;;;6.10;5.60;;;;;;;26.18;47.12;101031.31;4994888;28;20501;-63
2023/09/11 10:25:32;;;;;;;6.85;6.15;;;;;;;26.20;47.09;101023.00;4994704;28;20054;-63
2023/09/11 10:28:11;;;;;;;6.38;5.68;;;;;;;26.21;47.02;101009.28;4995896;28;20046;-67
2023/09/11 10:31:08;;;;;;;7.00;6.30;;;;;;;26.24;46.97;101021.63;4977675;28;20061;-65
2023/09/11 10:33:38;;;;;;;7.38;6.65;;;;;;;26.28;47.01;101006.69;4989899;28;20054;-65
2023/09/11 10:36:13;;;;;;;7.82;5.95;;;;;;;26.30;46.96;101008.22;4995379;28;20057;-61
2023/09/11 10:38:44;;;;;;;7.05;5.93;;;;;;;26.32;46.74;101010.75;4994331;28;20042;-61
2023/09/11 10:41:13;;;;;;;7.82;7.03;;;;;;;26.33;46.94;101004.31;4994874;28;20047;-66
2023/09/11 10:43:40;;;;;;;6.78;6.18;;;;;;;26.34;47.04;101008.72;4995696;28;20049;-60
2023/09/11 10:46:20;;;;;;;6.93;6.22;;;;;;;26.35;47.19;101005.84;5000933;28;20388;-60
2023/09/11 10:48:50;;;;;;;6.95;6.25;;;;;;;26.36;47.06;101006.69;5001012;28;20054;-63
2023/09/11 10:51:18;;;;;;;7.10;6.43;;;;;;;26.37;46.96;101002.94;4999589;28;20089;-62
2023/09/11 10:53:48;;;;;;;7.75;6.50;;;;;;;26.36;46.94;100995.81;5002892;28;20054;-61
2023/09/11 10:56:16;;;;;;;6.78;6.13;;;;;;;26.37;47.02;101008.38;5000678;28;20050;-60
2023/09/11 10:58:43;;;;;;;7.05;6.35;;;;;;;26.37;46.72;100998.38;5002417;28;20455;-61
2023/09/11 11:01:16;;;;;;;7.60;6.90;;;;;;;26.38;46.74;100993.78;5004165;28;20042;-65
2023/09/11 11:03:43;;;;;;;7.20;6.50;;;;;;;26.39;46.81;100995.47;5001356;28;20049;-61
2023/09/11 11:06:17;;;;;;;7.90;7.10;;;;;;;26.38;46.89;100989.22;5004760;28;20049;-62
2023/09/11 11:08:46;;;;;;;7.03;6.35;;;;;;;26.41;46.90;100982.56;5012620;28;20058;-60
2023/09/11 11:11:25;;;;;;;7.10;6.40;;;;;;;26.41;46.96;100985.28;4999434;28;20043;-60
2023/09/11 11:14:12;;;;;;;7.30;6.60;;;;;;;26.41;46.89;100977.13;4992772;28;20057;-62
2023/09/11 11:16:56;;;;;;;8.48;6.50;;;;;;;26.43;46.89;100974.25;5004256;28;20053;-65
2023/09/11 11:19:29;;;;;;;7.95;7.15;;;;;;;26.45;46.62;100974.94;4998961;28;20069;-62
2023/09/11 11:21:57;;;;;;;7.70;6.82;;;;;;;26.45;46.94;100969.53;5006312;28;20053;-62
2023/09/11 11:24:25;;;;;;;7.45;6.75;;;;;;;26.46;46.61;100965.81;5003406;28;20532;-58
2023/09/11 11:26:56;;;;;;;8.48;6.63;;;;;;;26.47;46.56;100962.91;5004476;28;20068;-59
2023/09/11 11:29:26;;;;;;;7.70;6.90;;;;;;;26.48;46.63;100961.88;5000915;28;20043;-62
2023/09/11 11:31:57;;;;;;;7.55;6.75;;;;;;;26.50;46.70;100964.44;5001076;28;20042;-64